VOE3595 LPPT-LEAS
Flight info
| Callsign | VOE3595 |
|---|---|
| Flight time | 0h 59m |
| Altitude | 36000 |
| Route | IXIDA DCT TOSDI DCT ZMR DCT VETAN DCT OMESI/N0379F240 M30 XONDA |
| Aircraft | A320/M-SDFGHIJ1RWY/LB1 |
Departure
| Time | 2026-04-16 08:21 |
|---|---|
| Airport | Lisbon Humberto Delgado Airport (LPPT) |
Arrival
| Time | 2026-04-16 09:21 |
|---|---|
| Airport | Asturias Airport (LEAS) |
| Time | Latitude | Longitude | Altitude | Speed | Heading |
|---|---|---|---|---|---|
| 2026-04-16 07:57 | 38.76473 | -9.13638 | 356 ft | 0 kts | 168° |
| 2026-04-16 08:09 | 38.76486 | -9.13641 | 358 ft | 4 kts | 168° |
| 2026-04-16 08:09 | 38.76512 | -9.13648 | 348 ft | 4 kts | 169° |
| 2026-04-16 08:09 | 38.76538 | -9.13650 | 351 ft | 4 kts | 199° |
| 2026-04-16 08:10 | 38.76556 | -9.13632 | 356 ft | 3 kts | 253° |
| 2026-04-16 08:10 | 38.76557 | -9.13626 | 356 ft | 0 kts | 258° |
| 2026-04-16 08:12 | 38.76555 | -9.13640 | 357 ft | 3 kts | 257° |
| 2026-04-16 08:12 | 38.76545 | -9.13691 | 348 ft | 9 kts | 256° |
| 2026-04-16 08:12 | 38.76528 | -9.13799 | 350 ft | 14 kts | 259° |
| 2026-04-16 08:13 | 38.76517 | -9.13902 | 347 ft | 8 kts | 280° |
| 2026-04-16 08:13 | 38.76562 | -9.13944 | 350 ft | 11 kts | 322° |
| 2026-04-16 08:13 | 38.76535 | -9.14044 | 356 ft | 13 kts | 229° |
| 2026-04-16 08:13 | 38.76494 | -9.14138 | 351 ft | 12 kts | 261° |
| 2026-04-16 08:14 | 38.76516 | -9.14242 | 336 ft | 0 kts | 294° |
| 2026-04-16 08:19 | 38.76646 | -9.14389 | 336 ft | 4 kts | 24° |
| 2026-04-16 08:20 | 38.76647 | -9.14389 | 336 ft | 0 kts | 24° |
| 2026-04-16 08:20 | 38.76648 | -9.14388 | 336 ft | 2 kts | 24° |
| 2026-04-16 08:20 | 38.76819 | -9.14292 | 349 ft | 61 kts | 22° |
| 2026-04-16 08:21 | 38.77394 | -9.13990 | 361 ft | 118 kts | 22° |
| 2026-04-16 08:21 | 38.78307 | -9.13505 | 394 ft | 162 kts | 21° |
| 2026-04-16 08:21 | 38.79368 | -9.12926 | 865 ft | 171 kts | 22° |
| 2026-04-16 08:21 | 38.80480 | -9.12318 | 1474 ft | 176 kts | 24° |
| 2026-04-16 08:22 | 38.81609 | -9.11674 | 2131 ft | 180 kts | 27° |
| 2026-04-16 08:22 | 38.82741 | -9.10835 | 2513 ft | 194 kts | 31° |
| 2026-04-16 08:22 | 38.83962 | -9.09901 | 2926 ft | 214 kts | 32° |
| 2026-04-16 08:22 | 38.85303 | -9.08858 | 3367 ft | 234 kts | 32° |
| 2026-04-16 08:23 | 38.86752 | -9.07725 | 3819 ft | 255 kts | 32° |
| 2026-04-16 08:23 | 38.88288 | -9.06527 | 4475 ft | 267 kts | 31° |
| 2026-04-16 08:23 | 38.89860 | -9.05199 | 5266 ft | 274 kts | 41° |
| 2026-04-16 08:23 | 38.91301 | -9.03557 | 6103 ft | 280 kts | 42° |
| 2026-04-16 08:24 | 38.92755 | -9.01865 | 6937 ft | 284 kts | 42° |
| 2026-04-16 08:24 | 38.94228 | -9.00140 | 7747 ft | 288 kts | 42° |
| 2026-04-16 08:24 | 38.95719 | -8.98391 | 8580 ft | 292 kts | 42° |
| 2026-04-16 08:24 | 38.97229 | -8.96621 | 9407 ft | 296 kts | 42° |
| 2026-04-16 08:25 | 38.98761 | -8.94828 | 10222 ft | 299 kts | 41° |
| 2026-04-16 08:25 | 39.00333 | -8.92988 | 10664 ft | 316 kts | 41° |
| 2026-04-16 08:25 | 39.01998 | -8.91043 | 10918 ft | 338 kts | 42° |
| 2026-04-16 08:25 | 39.03763 | -8.88978 | 11472 ft | 347 kts | 41° |
| 2026-04-16 08:26 | 39.05560 | -8.86872 | 12151 ft | 352 kts | 41° |
| 2026-04-16 08:26 | 39.07385 | -8.84733 | 12865 ft | 357 kts | 41° |
| 2026-04-16 08:26 | 39.09231 | -8.82567 | 13550 ft | 361 kts | 41° |
| 2026-04-16 08:26 | 39.11101 | -8.80374 | 14217 ft | 366 kts | 41° |
| 2026-04-16 08:27 | 39.12994 | -8.78154 | 14822 ft | 370 kts | 41° |
| 2026-04-16 08:27 | 39.14904 | -8.75916 | 15441 ft | 373 kts | 41° |
| 2026-04-16 08:27 | 39.16817 | -8.73630 | 16060 ft | 377 kts | 45° |
| 2026-04-16 08:27 | 39.18552 | -8.71134 | 16663 ft | 381 kts | 48° |
| 2026-04-16 08:28 | 39.20306 | -8.68562 | 17286 ft | 384 kts | 48° |
| 2026-04-16 08:28 | 39.22076 | -8.65965 | 17897 ft | 387 kts | 48° |
| 2026-04-16 08:28 | 39.23858 | -8.63348 | 18498 ft | 390 kts | 48° |
| 2026-04-16 08:28 | 39.25657 | -8.60705 | 19022 ft | 394 kts | 48° |
| 2026-04-16 08:29 | 39.27473 | -8.58041 | 19545 ft | 397 kts | 48° |
| 2026-04-16 08:29 | 39.29305 | -8.55351 | 20070 ft | 400 kts | 48° |
| 2026-04-16 08:29 | 39.31147 | -8.52645 | 20603 ft | 403 kts | 47° |
| 2026-04-16 08:29 | 39.32980 | -8.49948 | 21145 ft | 406 kts | 47° |
| 2026-04-16 08:30 | 39.34849 | -8.47198 | 21663 ft | 409 kts | 47° |
| 2026-04-16 08:30 | 39.36731 | -8.44430 | 22194 ft | 412 kts | 47° |
| 2026-04-16 08:30 | 39.38629 | -8.41636 | 22718 ft | 415 kts | 47° |
| 2026-04-16 08:30 | 39.40537 | -8.38822 | 23235 ft | 418 kts | 47° |
| 2026-04-16 08:31 | 39.42455 | -8.35984 | 23741 ft | 420 kts | 47° |
| 2026-04-16 08:31 | 39.44384 | -8.33124 | 24160 ft | 423 kts | 47° |
| 2026-04-16 08:31 | 39.46322 | -8.30251 | 24572 ft | 425 kts | 47° |
| 2026-04-16 08:31 | 39.48270 | -8.27357 | 24966 ft | 428 kts | 47° |
| 2026-04-16 08:32 | 39.50204 | -8.24484 | 25351 ft | 430 kts | 47° |
| 2026-04-16 08:32 | 39.52173 | -8.21560 | 25737 ft | 433 kts | 47° |
| 2026-04-16 08:32 | 39.54158 | -8.18613 | 26102 ft | 435 kts | 47° |
| 2026-04-16 08:32 | 39.56153 | -8.15648 | 26461 ft | 438 kts | 47° |
| 2026-04-16 08:33 | 39.58157 | -8.12662 | 26815 ft | 440 kts | 47° |
| 2026-04-16 08:33 | 39.60171 | -8.09658 | 27167 ft | 442 kts | 47° |
| 2026-04-16 08:33 | 39.62193 | -8.06637 | 27521 ft | 445 kts | 47° |
| 2026-04-16 08:33 | 39.64225 | -8.03600 | 27867 ft | 447 kts | 47° |
| 2026-04-16 08:34 | 39.66259 | -8.00607 | 28198 ft | 449 kts | 45° |
| 2026-04-16 08:34 | 39.68426 | -7.97680 | 28540 ft | 450 kts | 43° |
| 2026-04-16 08:34 | 39.70676 | -7.94846 | 28858 ft | 452 kts | 41° |
| 2026-04-16 08:34 | 39.72977 | -7.92053 | 29183 ft | 454 kts | 40° |
| 2026-04-16 08:35 | 39.75297 | -7.89262 | 29497 ft | 456 kts | 40° |
| 2026-04-16 08:35 | 39.77621 | -7.86436 | 29803 ft | 458 kts | 40° |
| 2026-04-16 08:35 | 39.79933 | -7.83571 | 30088 ft | 461 kts | 41° |
| 2026-04-16 08:35 | 39.82241 | -7.80661 | 30362 ft | 463 kts | 41° |
| 2026-04-16 08:36 | 39.84547 | -7.77723 | 30589 ft | 465 kts | 42° |
| 2026-04-16 08:36 | 39.86830 | -7.74808 | 30810 ft | 467 kts | 41° |
| 2026-04-16 08:36 | 39.89149 | -7.71845 | 31046 ft | 468 kts | 41° |
| 2026-04-16 08:36 | 39.91477 | -7.68872 | 31269 ft | 470 kts | 41° |
| 2026-04-16 08:37 | 39.93817 | -7.65891 | 31481 ft | 471 kts | 41° |
| 2026-04-16 08:37 | 39.96161 | -7.62907 | 31759 ft | 471 kts | 41° |
| 2026-04-16 08:37 | 39.98502 | -7.59929 | 32074 ft | 470 kts | 41° |
| 2026-04-16 08:37 | 40.00837 | -7.56952 | 32425 ft | 469 kts | 41° |
| 2026-04-16 08:38 | 40.03136 | -7.54020 | 32715 ft | 468 kts | 41° |
| 2026-04-16 08:38 | 40.05461 | -7.51050 | 33005 ft | 468 kts | 41° |
| 2026-04-16 08:38 | 40.07785 | -7.48079 | 33295 ft | 467 kts | 41° |
| 2026-04-16 08:38 | 40.10106 | -7.45109 | 33590 ft | 467 kts | 41° |
| 2026-04-16 08:39 | 40.12421 | -7.42140 | 33873 ft | 467 kts | 41° |
| 2026-04-16 08:39 | 40.14736 | -7.39171 | 34168 ft | 466 kts | 41° |
| 2026-04-16 08:39 | 40.17049 | -7.36201 | 34441 ft | 466 kts | 41° |
| 2026-04-16 08:39 | 40.19360 | -7.33234 | 34691 ft | 466 kts | 41° |
| 2026-04-16 08:40 | 40.21669 | -7.30269 | 34920 ft | 466 kts | 41° |
| 2026-04-16 08:40 | 40.23949 | -7.27334 | 35132 ft | 466 kts | 41° |
| 2026-04-16 08:40 | 40.26258 | -7.24357 | 35361 ft | 466 kts | 41° |
| 2026-04-16 08:40 | 40.28567 | -7.21378 | 35579 ft | 466 kts | 41° |
| 2026-04-16 08:41 | 40.30871 | -7.18400 | 35808 ft | 466 kts | 41° |
| 2026-04-16 08:41 | 40.33175 | -7.15411 | 36026 ft | 466 kts | 41° |
| 2026-04-16 08:41 | 40.35480 | -7.12419 | 36198 ft | 466 kts | 41° |
| 2026-04-16 08:41 | 40.37776 | -7.09438 | 36247 ft | 464 kts | 41° |
| 2026-04-16 08:42 | 40.42318 | -7.03543 | 36244 ft | 462 kts | 41° |
| 2026-04-16 08:42 | 40.46884 | -6.97617 | 36249 ft | 461 kts | 41° |
| 2026-04-16 08:43 | 40.51442 | -6.91685 | 36250 ft | 461 kts | 41° |
| 2026-04-16 08:43 | 40.55995 | -6.85745 | 36249 ft | 461 kts | 41° |
| 2026-04-16 08:44 | 40.60541 | -6.79799 | 36250 ft | 461 kts | 41° |
| 2026-04-16 08:44 | 40.65046 | -6.73877 | 36252 ft | 461 kts | 41° |
| 2026-04-16 08:45 | 40.69550 | -6.67954 | 36253 ft | 457 kts | 41° |
| 2026-04-16 08:45 | 40.74070 | -6.62010 | 36248 ft | 459 kts | 41° |
| 2026-04-16 08:46 | 40.78590 | -6.56055 | 36252 ft | 460 kts | 41° |
| 2026-04-16 08:46 | 40.83082 | -6.50126 | 36244 ft | 460 kts | 41° |
| 2026-04-16 08:47 | 40.87597 | -6.44151 | 36242 ft | 459 kts | 41° |
| 2026-04-16 08:47 | 40.92098 | -6.38172 | 36243 ft | 459 kts | 41° |
| 2026-04-16 08:48 | 40.96595 | -6.32184 | 36255 ft | 459 kts | 41° |
| 2026-04-16 08:48 | 41.01098 | -6.26285 | 36251 ft | 458 kts | 39° |
| 2026-04-16 08:49 | 41.05823 | -6.20649 | 36241 ft | 457 kts | 37° |
| 2026-04-16 08:49 | 41.10602 | -6.15107 | 36240 ft | 457 kts | 38° |
| 2026-04-16 08:50 | 41.15348 | -6.09499 | 36242 ft | 457 kts | 38° |
| 2026-04-16 08:50 | 41.20032 | -6.03884 | 36262 ft | 457 kts | 38° |
| 2026-04-16 08:51 | 41.24734 | -5.98208 | 36244 ft | 457 kts | 39° |
| 2026-04-16 08:51 | 41.29438 | -5.92530 | 36231 ft | 457 kts | 38° |
| 2026-04-16 08:52 | 41.34151 | -5.86859 | 36230 ft | 457 kts | 38° |
| 2026-04-16 08:52 | 41.38827 | -5.81218 | 36226 ft | 457 kts | 39° |
| 2026-04-16 08:53 | 41.43527 | -5.75521 | 36233 ft | 457 kts | 39° |
| 2026-04-16 08:53 | 41.48282 | -5.69912 | 36237 ft | 454 kts | 32° |
| 2026-04-16 08:54 | 41.50956 | -5.67732 | 36237 ft | 448 kts | 21° |
| 2026-04-16 08:54 | 41.53838 | -5.66219 | 36233 ft | 442 kts | 11° |
| 2026-04-16 08:54 | 41.59800 | -5.65241 | 36231 ft | 431 kts | 352° |
| 2026-04-16 08:55 | 41.65718 | -5.66209 | 36228 ft | 429 kts | 348° |
| 2026-04-16 08:55 | 41.71647 | -5.67242 | 36217 ft | 430 kts | 348° |
| 2026-04-16 08:56 | 41.77595 | -5.68278 | 36220 ft | 432 kts | 348° |
| 2026-04-16 08:56 | 41.83512 | -5.69323 | 36223 ft | 432 kts | 348° |
| 2026-04-16 08:57 | 41.89476 | -5.70391 | 36230 ft | 433 kts | 348° |
| 2026-04-16 08:57 | 41.95448 | -5.71449 | 36229 ft | 433 kts | 348° |
| 2026-04-16 08:58 | 42.01432 | -5.72510 | 36232 ft | 434 kts | 348° |
| 2026-04-16 08:58 | 42.07418 | -5.73585 | 36191 ft | 436 kts | 348° |
| 2026-04-16 08:59 | 42.10386 | -5.74119 | 35934 ft | 436 kts | 348° |
| 2026-04-16 08:59 | 42.13395 | -5.74662 | 35683 ft | 437 kts | 348° |
| 2026-04-16 08:59 | 42.16404 | -5.75203 | 35354 ft | 434 kts | 348° |
| 2026-04-16 08:59 | 42.19390 | -5.75735 | 34817 ft | 432 kts | 348° |
| 2026-04-16 09:00 | 42.22359 | -5.76265 | 34285 ft | 429 kts | 348° |
| 2026-04-16 09:00 | 42.25310 | -5.76795 | 33712 ft | 426 kts | 348° |
| 2026-04-16 09:00 | 42.28236 | -5.77323 | 33194 ft | 424 kts | 348° |
| 2026-04-16 09:00 | 42.31151 | -5.77846 | 32665 ft | 421 kts | 348° |
| 2026-04-16 09:01 | 42.36882 | -5.78874 | 31651 ft | 416 kts | 348° |
| 2026-04-16 09:01 | 42.39742 | -5.79389 | 31139 ft | 414 kts | 348° |
| 2026-04-16 09:01 | 42.42587 | -5.79902 | 30635 ft | 411 kts | 348° |
| 2026-04-16 09:02 | 42.45418 | -5.80414 | 30113 ft | 409 kts | 348° |
| 2026-04-16 09:02 | 42.48231 | -5.80924 | 29607 ft | 406 kts | 348° |
| 2026-04-16 09:02 | 42.51021 | -5.81428 | 29129 ft | 402 kts | 348° |
| 2026-04-16 09:02 | 42.53785 | -5.81928 | 28659 ft | 399 kts | 348° |
| 2026-04-16 09:03 | 42.56521 | -5.82424 | 28207 ft | 395 kts | 348° |
| 2026-04-16 09:03 | 42.59198 | -5.82909 | 27766 ft | 392 kts | 348° |
| 2026-04-16 09:03 | 42.61889 | -5.83400 | 27330 ft | 389 kts | 348° |
| 2026-04-16 09:03 | 42.64558 | -5.83889 | 26891 ft | 386 kts | 348° |
| 2026-04-16 09:04 | 42.67208 | -5.84371 | 26458 ft | 383 kts | 348° |
| 2026-04-16 09:04 | 42.69837 | -5.84847 | 26028 ft | 380 kts | 348° |
| 2026-04-16 09:04 | 42.72445 | -5.85320 | 25587 ft | 377 kts | 348° |
| 2026-04-16 09:04 | 42.75039 | -5.85792 | 25134 ft | 375 kts | 348° |
| 2026-04-16 09:05 | 42.77622 | -5.86264 | 24690 ft | 374 kts | 348° |
| 2026-04-16 09:05 | 42.80196 | -5.86736 | 24219 ft | 373 kts | 348° |
| 2026-04-16 09:05 | 42.82725 | -5.87199 | 23769 ft | 371 kts | 348° |
| 2026-04-16 09:05 | 42.85280 | -5.87664 | 23250 ft | 370 kts | 348° |
| 2026-04-16 09:06 | 42.87820 | -5.88123 | 22798 ft | 367 kts | 348° |
| 2026-04-16 09:06 | 42.90348 | -5.88561 | 22324 ft | 365 kts | 349° |
| 2026-04-16 09:06 | 42.92866 | -5.88983 | 21866 ft | 363 kts | 349° |
| 2026-04-16 09:06 | 42.95371 | -5.89398 | 21410 ft | 362 kts | 349° |
| 2026-04-16 09:07 | 42.97869 | -5.89815 | 20954 ft | 361 kts | 349° |
| 2026-04-16 09:07 | 43.00356 | -5.90232 | 20507 ft | 359 kts | 349° |
| 2026-04-16 09:07 | 43.02798 | -5.90643 | 20071 ft | 357 kts | 348° |
| 2026-04-16 09:07 | 43.05205 | -5.91350 | 19626 ft | 351 kts | 337° |
| 2026-04-16 09:08 | 43.07406 | -5.92722 | 19201 ft | 345 kts | 325° |
| 2026-04-16 09:08 | 43.09329 | -5.94634 | 18785 ft | 340 kts | 317° |
| 2026-04-16 09:08 | 43.11170 | -5.96653 | 18352 ft | 339 kts | 317° |
| 2026-04-16 09:08 | 43.13009 | -5.98663 | 17915 ft | 337 kts | 317° |
| 2026-04-16 09:09 | 43.14834 | -6.00651 | 17508 ft | 333 kts | 317° |
| 2026-04-16 09:09 | 43.16638 | -6.02616 | 17111 ft | 330 kts | 317° |
| 2026-04-16 09:09 | 43.18402 | -6.04538 | 16715 ft | 327 kts | 317° |
| 2026-04-16 09:09 | 43.20179 | -6.06476 | 16317 ft | 325 kts | 317° |
| 2026-04-16 09:10 | 43.21935 | -6.08398 | 15908 ft | 321 kts | 317° |
| 2026-04-16 09:10 | 43.23670 | -6.10303 | 15518 ft | 319 kts | 317° |
| 2026-04-16 09:10 | 43.25396 | -6.12204 | 15125 ft | 318 kts | 317° |
| 2026-04-16 09:10 | 43.27116 | -6.14100 | 14747 ft | 317 kts | 317° |
| 2026-04-16 09:11 | 43.28834 | -6.15996 | 14342 ft | 316 kts | 317° |
| 2026-04-16 09:11 | 43.30550 | -6.17887 | 13942 ft | 316 kts | 317° |
| 2026-04-16 09:11 | 43.32262 | -6.19773 | 13510 ft | 315 kts | 317° |
| 2026-04-16 09:11 | 43.33941 | -6.21627 | 13105 ft | 313 kts | 317° |
| 2026-04-16 09:12 | 43.35628 | -6.23492 | 12728 ft | 311 kts | 317° |
| 2026-04-16 09:12 | 43.37311 | -6.25349 | 12320 ft | 309 kts | 317° |
| 2026-04-16 09:12 | 43.38977 | -6.27187 | 12071 ft | 302 kts | 317° |
| 2026-04-16 09:12 | 43.40583 | -6.28953 | 11653 ft | 292 kts | 317° |
| 2026-04-16 09:13 | 43.42155 | -6.30681 | 11173 ft | 285 kts | 317° |
| 2026-04-16 09:13 | 43.43670 | -6.32350 | 10793 ft | 274 kts | 317° |
| 2026-04-16 09:13 | 43.45145 | -6.33988 | 10419 ft | 273 kts | 316° |
| 2026-04-16 09:13 | 43.46632 | -6.35649 | 9837 ft | 275 kts | 317° |
| 2026-04-16 09:14 | 43.48075 | -6.37257 | 9415 ft | 266 kts | 317° |
| 2026-04-16 09:14 | 43.49511 | -6.38792 | 9044 ft | 258 kts | 324° |
| 2026-04-16 09:14 | 43.51124 | -6.39807 | 8683 ft | 253 kts | 341° |
| 2026-04-16 09:14 | 43.52854 | -6.40137 | 8296 ft | 252 kts | 358° |
| 2026-04-16 09:15 | 43.54584 | -6.39775 | 7892 ft | 253 kts | 15° |
| 2026-04-16 09:15 | 43.56261 | -6.39034 | 7499 ft | 253 kts | 16° |
| 2026-04-16 09:15 | 43.57943 | -6.38291 | 7074 ft | 255 kts | 16° |
| 2026-04-16 09:15 | 43.59636 | -6.37541 | 6658 ft | 258 kts | 16° |
| 2026-04-16 09:16 | 43.61349 | -6.36753 | 6188 ft | 261 kts | 22° |
| 2026-04-16 09:16 | 43.62733 | -6.35236 | 5742 ft | 261 kts | 59° |
| 2026-04-16 09:16 | 43.63207 | -6.32889 | 5308 ft | 255 kts | 96° |
| 2026-04-16 09:16 | 43.62803 | -6.30523 | 4889 ft | 254 kts | 108° |
| 2026-04-16 09:17 | 43.62258 | -6.28209 | 4447 ft | 253 kts | 110° |
| 2026-04-16 09:17 | 43.61671 | -6.25929 | 3985 ft | 249 kts | 111° |
| 2026-04-16 09:17 | 43.61073 | -6.23765 | 3478 ft | 234 kts | 111° |
| 2026-04-16 09:17 | 43.60535 | -6.21717 | 3070 ft | 219 kts | 108° |
| 2026-04-16 09:18 | 43.60083 | -6.19792 | 2739 ft | 205 kts | 108° |
| 2026-04-16 09:18 | 43.59669 | -6.18003 | 2525 ft | 189 kts | 108° |
| 2026-04-16 09:18 | 43.59291 | -6.16362 | 2337 ft | 174 kts | 107° |
| 2026-04-16 09:18 | 43.58941 | -6.14803 | 2032 ft | 161 kts | 107° |
| 2026-04-16 09:19 | 43.58629 | -6.13381 | 1725 ft | 151 kts | 107° |
| 2026-04-16 09:19 | 43.58341 | -6.12025 | 1456 ft | 143 kts | 105° |
| 2026-04-16 09:19 | 43.58078 | -6.10721 | 1282 ft | 140 kts | 106° |
| 2026-04-16 09:19 | 43.57800 | -6.09440 | 1095 ft | 138 kts | 106° |
| 2026-04-16 09:20 | 43.57508 | -6.08175 | 929 ft | 139 kts | 108° |
| 2026-04-16 09:20 | 43.57199 | -6.06943 | 736 ft | 137 kts | 109° |
| 2026-04-16 09:20 | 43.56895 | -6.05703 | 583 ft | 136 kts | 107° |
| 2026-04-16 09:20 | 43.56604 | -6.04479 | 433 ft | 130 kts | 107° |
| 2026-04-16 09:21 | 43.56357 | -6.03449 | 424 ft | 94 kts | 109° |
| 2026-04-16 09:21 | 43.56195 | -6.02776 | 419 ft | 58 kts | 108° |
| 2026-04-16 09:21 | 43.56100 | -6.02365 | 423 ft | 31 kts | 108° |
| 2026-04-16 09:21 | 43.56043 | -6.02232 | 424 ft | 11 kts | 148° |
| 2026-04-16 09:22 | 43.55992 | -6.02244 | 417 ft | 5 kts | 221° |
| 2026-04-16 09:22 | 43.55985 | -6.02257 | 422 ft | 0 kts | 238° |
| 2026-04-16 09:22 | 43.55966 | -6.02309 | 426 ft | 13 kts | 244° |
| 2026-04-16 09:23 | 43.55954 | -6.02462 | 417 ft | 18 kts | 289° |
| 2026-04-16 09:23 | 43.55991 | -6.02614 | 422 ft | 15 kts | 289° |
| 2026-04-16 09:23 | 43.56018 | -6.02734 | 422 ft | 12 kts | 287° |
| 2026-04-16 09:23 | 43.56040 | -6.02828 | 417 ft | 9 kts | 288° |
| 2026-04-16 09:24 | 43.56038 | -6.02890 | 425 ft | 6 kts | 235° |
| 2026-04-16 09:24 | 43.56000 | -6.02923 | 421 ft | 4 kts | 225° |
| 2026-04-16 09:24 | 43.56002 | -6.02998 | 426 ft | 12 kts | 288° |
| 2026-04-16 09:24 | 43.56027 | -6.03102 | 418 ft | 13 kts | 288° |
| 2026-04-16 09:25 | 43.56051 | -6.03209 | 422 ft | 7 kts | 275° |
| 2026-04-16 09:25 | 43.56036 | -6.03232 | 417 ft | 0 kts | 215° |
| 2026-04-16 09:25 | 43.56030 | -6.03239 | 422 ft | 2 kts | 216° |
| 2026-04-16 09:25 | 43.56018 | -6.03262 | 423 ft | 1 kts | 241° |
| 2026-04-16 09:26 | 43.56017 | -6.03263 | 423 ft | 0 kts | 241° |